CheckWX is a tool to help pilots better visualize weather data.  It is not intended as a substitute for an official pre-flight weather briefing.

17:10:07 UTC

KJAC METAR
Jackson Hole Airport
Jackson, Wyoming, USA
Current

1 hour ago

KJAC 211556Z 00000KT 10SM CLR 17/05 A3029 RMK AO2 SLP206 T01720050
Observed
Jul-21 @ 15:56 UTC
Visibility
10 SM
Flight Rules
VFR
Cloud Levels
  • Clear skies
Temperature
17°C / 63°F
Dewpoint
C / 41°F
Humidity
45%
Altimeter
30.29" Hg
Pressure
1025.72 hPa
Previous

2 hours ago

KJAC 211456Z 00000KT 10SM CLR 14/04 A3030 RMK AO2 SLP208 6//// T01390044 51015
Observed
Jul-21 @ 14:56 UTC
Visibility
10 SM
Flight Rules
VFR
Cloud Levels
  • Clear skies
Temperature
14°C / 57°F
Dewpoint
C / 39°F
Humidity
51%
Altimeter
30.3" Hg
Pressure
1026.12 hPa
Previous

3 hours ago

KJAC 211356Z 01004KT 10SM CLR 11/04 A3029 RMK AO2 SLP202 T01060044
Observed
Jul-21 @ 13:56 UTC
Wind
  • 010° at 4 KTS
Visibility
10 SM
Flight Rules
VFR
Cloud Levels
  • Clear skies
Temperature
11°C / 52°F
Dewpoint
C / 39°F
Humidity
62%
Altimeter
30.29" Hg
Pressure
1025.72 hPa